createdAt,value
2018-07-13T00:02:21.871Z,50.30
2018-07-13T00:07:25.034Z,50.10
2018-07-13T00:12:28.822Z,50.20
2018-07-13T00:17:32.065Z,49.80
2018-07-13T00:22:35.471Z,49.90
2018-07-13T00:27:38.842Z,49.80
2018-07-13T00:32:42.087Z,49.70
2018-07-13T00:37:45.432Z,49.60
2018-07-13T00:42:48.811Z,49.60
2018-07-13T00:47:52.091Z,49.50
2018-07-13T00:52:55.453Z,49.40
2018-07-13T00:57:58.664Z,49.40
2018-07-13T01:03:03.425Z,49.30
2018-07-13T01:08:06.607Z,49.40
2018-07-13T01:13:09.839Z,49.30
2018-07-13T01:18:13.310Z,49.20
2018-07-13T01:23:16.565Z,49.10
2018-07-13T01:28:19.750Z,49.00
2018-07-13T01:33:22.959Z,49.10
2018-07-13T01:38:26.223Z,49.00
2018-07-13T01:43:29.600Z,49.00
2018-07-13T01:48:32.790Z,48.90
2018-07-13T01:53:36.065Z,49.00
2018-07-13T01:58:39.336Z,48.90
2018-07-13T02:03:42.540Z,48.80
2018-07-13T02:08:45.819Z,49.00
2018-07-13T02:13:49.278Z,48.80
2018-07-13T02:18:52.464Z,48.80
2018-07-13T02:23:55.613Z,48.90
2018-07-13T02:28:58.921Z,49.00
2018-07-13T02:34:02.199Z,48.90
2018-07-13T02:39:06.439Z,48.90
2018-07-13T02:44:09.669Z,48.90
2018-07-13T02:49:12.884Z,48.90
2018-07-13T02:54:16.243Z,48.80
2018-07-13T02:59:19.420Z,48.80
2018-07-13T03:04:22.851Z,48.80
2018-07-13T03:09:26.174Z,49.10
2018-07-13T03:14:29.363Z,48.80
2018-07-13T03:19:32.754Z,48.60
2018-07-13T03:24:36.061Z,48.70
2018-07-13T03:29:39.263Z,48.60
2018-07-13T03:34:42.629Z,48.60
2018-07-13T03:39:46.025Z,48.50
2018-07-13T03:44:49.241Z,49.20
2018-07-13T03:49:52.611Z,48.50
2018-07-13T03:54:55.855Z,48.40
2018-07-13T03:59:59.124Z,48.50
2018-07-13T04:05:02.282Z,48.40
2018-07-13T04:10:05.483Z,48.40
2018-07-13T04:15:09.349Z,48.30
2018-07-13T04:20:12.664Z,48.20
2018-07-13T04:25:15.929Z,48.30
2018-07-13T04:30:19.231Z,48.20
2018-07-13T04:35:22.567Z,48.20
2018-07-13T04:40:25.791Z,48.20
2018-07-13T04:45:28.936Z,48.00
2018-07-13T04:50:32.401Z,48.10
2018-07-13T04:55:35.649Z,47.90
2018-07-13T05:00:38.926Z,47.90
2018-07-13T05:05:42.827Z,48.00
2018-07-13T05:10:46.063Z,47.80
2018-07-13T05:15:49.232Z,47.80
2018-07-13T05:20:52.420Z,47.80
2018-07-13T05:25:55.921Z,47.80
2018-07-13T05:30:59.099Z,47.90
2018-07-13T05:36:02.414Z,47.80
2018-07-13T05:41:05.755Z,47.80
2018-07-13T05:46:09.686Z,47.70
2018-07-13T05:51:12.965Z,47.90
2018-07-13T05:56:16.579Z,47.80
2018-07-13T06:01:19.870Z,47.80
2018-07-13T06:06:23.379Z,47.70
2018-07-13T06:11:28.343Z,47.80
2018-07-13T06:16:31.594Z,47.70
2018-07-13T06:21:34.841Z,47.60
2018-07-13T06:26:38.129Z,47.40
2018-07-13T06:31:41.381Z,47.30
2018-07-13T06:36:44.725Z,47.50
2018-07-13T06:41:47.945Z,47.50
2018-07-13T06:46:51.195Z,47.50
2018-07-13T06:51:54.593Z,47.40
2018-07-13T06:56:57.806Z,49.00
2018-07-13T07:02:01.153Z,50.20
2018-07-13T07:07:10.207Z,49.30
2018-07-13T07:12:50.824Z,48.80
2018-07-13T07:17:54.941Z,48.70
2018-07-13T07:22:58.156Z,48.70
2018-07-13T07:28:01.438Z,48.80
2018-07-13T07:33:04.748Z,48.70
2018-07-13T07:38:07.999Z,48.90
2018-07-13T07:43:11.201Z,48.60
2018-07-13T07:48:14.392Z,48.50
2018-07-13T07:53:17.701Z,48.30
2018-07-13T07:58:21.174Z,49.10
2018-07-13T08:03:24.431Z,48.30
2018-07-13T08:08:27.883Z,48.40
2018-07-13T08:13:31.164Z,48.40
2018-07-13T08:18:34.655Z,48.60
2018-07-13T08:23:37.892Z,48.60
2018-07-13T08:28:42.316Z,49.00
2018-07-13T08:33:45.489Z,49.10
2018-07-13T08:38:48.679Z,48.80
2018-07-13T08:43:52.089Z,48.30
2018-07-13T08:48:55.521Z,49.10
2018-07-13T08:53:59.045Z,49.60
2018-07-13T08:59:02.375Z,49.70
2018-07-13T09:04:05.654Z,49.70
2018-07-13T09:09:14.268Z,50.10
2018-07-13T09:14:17.467Z,49.90
2018-07-13T09:19:20.713Z,49.60
2018-07-13T09:24:23.970Z,49.60
2018-07-13T09:29:27.338Z,49.80
2018-07-13T09:34:30.552Z,49.70
2018-07-13T09:39:33.954Z,49.90
2018-07-13T09:44:38.219Z,50.10
2018-07-13T09:49:41.449Z,50.00
2018-07-13T09:54:44.659Z,49.90
2018-07-13T09:59:47.893Z,50.30
2018-07-13T10:04:51.616Z,50.10
2018-07-13T10:09:54.850Z,50.30
2018-07-13T10:14:58.091Z,49.90
2018-07-13T10:20:01.278Z,49.80
2018-07-13T10:25:04.961Z,49.80
2018-07-13T10:30:11.098Z,49.70
2018-07-13T10:35:14.338Z,49.90
2018-07-13T10:40:17.660Z,49.60
2018-07-13T10:45:20.876Z,49.80
2018-07-13T10:50:24.198Z,49.60
2018-07-13T10:55:27.450Z,49.90
2018-07-13T11:00:30.907Z,49.80
2018-07-13T11:05:34.372Z,49.90
2018-07-13T11:10:37.578Z,49.80
2018-07-13T11:15:40.774Z,50.00
2018-07-13T11:20:44.097Z,49.70
2018-07-13T11:25:47.340Z,50.10
2018-07-13T11:30:50.550Z,49.70
2018-07-13T11:35:54.641Z,49.70
2018-07-13T11:40:57.982Z,49.90
2018-07-13T11:46:01.445Z,49.60
2018-07-13T11:51:04.790Z,49.60
2018-07-13T11:56:08.024Z,49.40
2018-07-13T12:01:15.207Z,49.30
2018-07-13T12:06:18.524Z,49.30
2018-07-13T12:11:21.820Z,49.30
2018-07-13T12:16:25.119Z,49.40
2018-07-13T12:21:28.330Z,49.40
2018-07-13T12:26:31.710Z,49.20
2018-07-13T12:31:35.025Z,49.70
2018-07-13T12:36:38.383Z,49.30
2018-07-13T12:41:41.807Z,48.90
2018-07-13T12:46:45.237Z,48.90
2018-07-13T12:51:48.457Z,48.90
2018-07-13T12:56:51.799Z,48.80
2018-07-13T13:01:55.358Z,48.80
2018-07-13T13:06:58.830Z,48.80
2018-07-13T13:12:01.996Z,48.90
2018-07-13T13:17:05.327Z,48.70
2018-07-13T13:22:08.571Z,48.60
2018-07-13T13:27:11.760Z,48.60
2018-07-13T13:32:15.114Z,48.80
2018-07-13T13:37:19.186Z,48.90
2018-07-13T13:42:22.793Z,48.80
2018-07-13T13:47:26.033Z,48.70
2018-07-13T13:52:29.494Z,48.70
2018-07-13T13:57:32.713Z,49.00
2018-07-13T14:02:36.454Z,48.90
2018-07-13T14:07:39.627Z,48.90
2018-07-13T14:12:42.839Z,49.00
2018-07-13T14:17:46.057Z,48.90
2018-07-13T14:22:49.272Z,48.90
2018-07-13T14:27:52.902Z,48.90
2018-07-13T14:32:56.205Z,48.90
2018-07-13T14:38:01.919Z,48.90
2018-07-13T14:43:05.237Z,48.90
2018-07-13T14:48:08.707Z,48.90
2018-07-13T14:53:13.255Z,48.80
2018-07-13T14:58:16.729Z,48.80
2018-07-13T15:03:20.093Z,48.60
2018-07-13T15:08:23.480Z,48.60
2018-07-13T15:13:26.714Z,48.70
2018-07-13T15:18:29.988Z,48.50
2018-07-13T15:23:33.199Z,48.30
2018-07-13T15:28:36.408Z,48.40
2018-07-13T15:33:42.593Z,48.80
2018-07-13T15:38:45.871Z,48.20
2018-07-13T15:43:49.885Z,48.00
2018-07-13T15:48:53.127Z,48.50
2018-07-13T15:53:56.372Z,48.20
2018-07-13T15:58:59.665Z,48.10
2018-07-13T16:04:02.897Z,48.20
2018-07-13T16:09:06.320Z,48.10
2018-07-13T16:14:10.322Z,48.00
2018-07-13T16:19:13.642Z,47.80
2018-07-13T16:24:16.828Z,47.10
2018-07-13T16:29:20.072Z,48.10
2018-07-13T16:34:23.953Z,48.40
2018-07-13T16:39:27.440Z,48.40
2018-07-13T16:44:30.884Z,48.30
2018-07-13T16:49:34.286Z,48.40
2018-07-13T16:54:37.540Z,48.30
2018-07-13T16:59:40.738Z,48.60
2018-07-13T17:04:44.506Z,48.70
2018-07-13T17:09:48.043Z,48.90
2018-07-13T17:14:51.458Z,49.40
2018-07-13T17:19:54.891Z,48.80
2018-07-13T17:24:58.092Z,48.90
2018-07-13T17:30:01.358Z,48.90
2018-07-13T17:35:04.688Z,50.00
2018-07-13T17:40:07.942Z,49.20
2018-07-13T17:45:11.167Z,49.30
2018-07-13T17:50:14.466Z,49.00
2018-07-13T17:55:17.644Z,48.90
2018-07-13T18:00:20.947Z,49.60
2018-07-13T18:05:24.177Z,48.90
2018-07-13T18:10:27.505Z,48.90
2018-07-13T18:15:30.786Z,49.00
2018-07-13T18:20:34.019Z,49.00
2018-07-13T18:25:37.453Z,48.80
2018-07-13T18:30:40.771Z,48.80
2018-07-13T18:35:44.036Z,48.80
2018-07-13T18:40:47.459Z,48.80
2018-07-13T18:45:50.707Z,48.50
2018-07-13T18:50:53.916Z,48.70
2018-07-13T18:55:57.149Z,48.50
2018-07-13T19:01:00.442Z,48.60
2018-07-13T19:06:03.852Z,48.30
2018-07-13T19:11:07.301Z,48.30
2018-07-13T19:16:10.582Z,48.20
2018-07-13T19:21:15.487Z,48.70
2018-07-13T19:26:18.737Z,48.10
2018-07-13T19:31:22.006Z,48.10
2018-07-13T19:36:25.300Z,48.10
2018-07-13T19:41:29.402Z,48.10
2018-07-13T19:46:32.804Z,48.10
2018-07-13T19:51:36.080Z,48.10
2018-07-13T19:56:39.428Z,48.10
2018-07-13T20:01:42.667Z,48.10
2018-07-13T20:06:45.905Z,48.20
2018-07-13T20:11:49.166Z,48.00
2018-07-13T20:16:52.514Z,48.10
2018-07-13T20:21:55.799Z,48.50
2018-07-13T20:26:59.067Z,47.90
2018-07-13T20:32:02.415Z,48.70
2018-07-13T20:37:06.119Z,48.30
2018-07-13T20:42:09.475Z,48.50
2018-07-13T20:47:13.221Z,49.30
2018-07-13T20:52:16.577Z,49.00
2018-07-13T20:57:20.036Z,49.50
2018-07-13T21:02:23.381Z,49.70
2018-07-13T21:07:27.696Z,49.80
2018-07-13T21:12:32.080Z,51.80
2018-07-13T21:17:35.384Z,50.60
2018-07-13T21:22:38.685Z,50.70
2018-07-13T21:27:41.881Z,50.80
2018-07-13T21:32:45.101Z,50.90
2018-07-13T21:37:48.484Z,50.60
2018-07-13T21:42:51.802Z,50.80
2018-07-13T21:47:55.144Z,50.50
2018-07-13T21:52:58.467Z,50.40
2018-07-13T21:58:02.714Z,50.30
2018-07-13T22:03:06.152Z,49.90
2018-07-13T22:08:09.469Z,50.40
2018-07-13T22:13:12.778Z,50.30
2018-07-13T22:18:17.067Z,50.20
2018-07-13T22:23:20.368Z,50.10
2018-07-13T22:28:23.533Z,50.10
2018-07-13T22:33:26.788Z,49.80
2018-07-13T22:38:30.060Z,49.90
2018-07-13T22:43:33.241Z,50.00
2018-07-13T22:48:36.403Z,49.90
2018-07-13T22:53:39.751Z,49.80
2018-07-13T22:58:42.955Z,49.80
2018-07-13T23:03:46.143Z,49.80
2018-07-13T23:08:49.500Z,49.80
2018-07-13T23:13:52.784Z,49.80
2018-07-13T23:18:56.372Z,49.80
2018-07-13T23:23:59.582Z,49.90
2018-07-13T23:29:02.761Z,49.80
2018-07-13T23:34:05.948Z,49.80
2018-07-13T23:39:09.133Z,49.60
2018-07-13T23:44:12.395Z,49.80
2018-07-13T23:49:15.632Z,49.70
2018-07-13T23:54:18.802Z,49.80
2018-07-13T23:59:21.942Z,49.70
